Ye Chi — VRFV6 — position and weather

sailwx.info

Track history (hours):
 
Tides and Currents Weather Stations Pressure Air Temp Water Temp Dewpoint Dewpoint Depression Visibility Wind Speed Wind Dir Waves Ship Positions

Ye Chi

Last reported at 2017-Jun-01 00:00 UTC. Time now 2017-Jun-24 20:52 UTC.
Position N 01°17' E 103°22'.
Warning: this ship's position is 23 days out of date.

Length 186 m; draft 7.5 m.

Type: Tanker. MMSI: 477621300.

Date/timePositionNaut miles runAvg speedWind from/ knotsBaromVisibWave heightAir tempDewpointWater temp
2017-Jun-01 00:00N 01°17' E 103°22'712.8
2017-May-31 23:26N 01°14' E 103°29'612.8
2017-May-31 23:00N 01°12' E 103°34'510.2
2017-May-31 22:30N 01°11' E 103°39'511.0
2017-May-31 22:00N 01°08' E 103°44'510.2
2017-May-31 21:30N 01°11' E 103°48'510.4
2017-May-31 21:00N 01°13' E 103°53'611.5
2017-May-31 20:30N 01°15' E 103°58'  
2017-May-26 13:28N 01°15' E 104°03'4 9.4
2017-May-26 13:00N 01°17' E 103°59'2 3.0
2017-May-26 12:29N 01°17' E 103°57'0 0.1
2017-May-26 11:59N 01°17' E 103°57'0 0.0
2017-May-26 11:29N 01°17' E 103°57'0 0.0
2017-May-26 10:59N 01°17' E 103°57'0 0.1
2017-May-26 10:26N 01°17' E 103°57'0 0.1
2017-May-26 09:59N 01°17' E 103°57'0 0.1
2017-May-26 09:29N 01°17' E 103°58'0 0.0
2017-May-26 08:56N 01°17' E 103°58'0 0.1
2017-May-26 08:29N 01°17' E 103°58'0 0.0
2017-May-26 07:59N 01°17' E 103°58'0 0.0
2017-May-26 07:26N 01°17' E 103°58'0 0.1
2017-May-26 06:59N 01°17' E 103°58'0 0.1
2017-May-26 06:29N 01°17' E 103°58'0 0.0
2017-May-26 05:56N 01°17' E 103°58'0 0.1
2017-May-26 05:29N 01°17' E 103°58'0 0.4
2017-May-26 04:56N 01°17' E 103°57'0 0.0
2017-May-26 04:29N 01°17' E 103°57'0 0.1
2017-May-26 03:47N 01°17' E 103°57'0 0.1
2017-May-26 03:23N 01°17' E 103°57'0 0.1
2017-May-26 02:53N 01°17' E 103°57'0 0.0
2017-May-26 02:17N 01°17' E 103°57'0 0.0
2017-May-26 01:59N 01°17' E 103°57'0 0.1
2017-May-26 01:20N 01°17' E 103°57'0 0.0
2017-May-26 00:59N 01°17' E 103°57'0 0.0
2017-May-26 00:26N 01°17' E 103°57'1 2.1
2017-May-26 00:00N 01°17' E 103°57'3 6.5
2017-May-25 23:30N 01°14' E 103°55'511.0
2017-May-25 23:00N 01°12' E 103°50'510.7
2017-May-25 22:30N 01°15' E 103°45'4 7.5
2017-May-25 22:01N 01°16' E 103°41'0 0.3
2017-May-25 21:30N 01°16' E 103°41'0 0.0
2017-May-25 20:57N 01°16' E 103°41'0 0.0
2017-May-25 20:30N 01°16' E 103°41'0 0.0
2017-May-25 19:54N 01°16' E 103°41'0 0.0
2017-May-25 19:24N 01°16' E 103°41'0 0.0
2017-May-25 18:54N 01°16' E 103°41'0 0.0
2017-May-25 18:24N 01°16' E 103°41'0 0.0
2017-May-25 17:48N 01°16' E 103°41'0 0.2
2017-May-25 17:24N 01°16' E 103°41'0 0.1
2017-May-25 16:54N 01°16' E 103°41'0 0.0
2017-May-25 16:30N 01°16' E 103°41'0 0.0
2017-May-25 15:54N 01°16' E 103°41'0 0.0
2017-May-25 15:30N 01°16' E 103°41'0 0.0
2017-May-25 14:57N 01°16' E 103°41'0 0.0
2017-May-25 14:27N 01°16' E 103°41'0 0.0
2017-May-25 13:30N 01°16' E 103°41'0 0.0
2017-May-25 12:57N 01°16' E 103°41'0 0.0
2017-May-25 12:24N 01°16' E 103°41'0 0.0
2017-May-25 11:54N 01°16' E 103°41'0 0.0
2017-May-25 11:30N 01°16' E 103°41'0 0.0
2017-May-25 10:57N 01°16' E 103°41'0 0.0
2017-May-25 10:24N 01°16' E 103°41'0 0.0
2017-May-25 09:45N 01°16' E 103°41'0 0.0
2017-May-25 09:30N 01°16' E 103°41'0 0.0
2017-May-25 08:51N 01°16' E 103°41'0 0.0
2017-May-25 08:18N 01°16' E 103°41'0 0.0
2017-May-25 07:48N 01°16' E 103°41'0 0.0
2017-May-25 07:30N 01°16' E 103°41'0 0.0
2017-May-25 06:54N 01°16' E 103°41'0 0.0
2017-May-25 06:18N 01°16' E 103°41'0 0.0
2017-May-25 05:36N 01°16' E 103°41'0 0.0
2017-May-25 05:30N 01°16' E 103°41'0 0.0
2017-May-25 04:54N 01°16' E 103°41'0 0.0
2017-May-25 03:54N 01°16' E 103°41'0 0.0
2017-May-25 03:30N 01°16' E 103°41'0 0.0
2017-May-25 02:54N 01°16' E 103°41'0 0.0
2017-May-25 02:15N 01°16' E 103°41'0 0.0
2017-May-25 01:48N 01°16' E 103°41'0 0.0
2017-May-25 01:27N 01°16' E 103°41'0 0.0
2017-May-25 00:51N 01°16' E 103°41'0 0.0
2017-May-25 00:18N 01°16' E 103°41'0 0.1
2017-May-24 23:51N 01°16' E 103°41'0 0.1
2017-May-24 23:18N 01°16' E 103°41'0 0.0
2017-May-24 22:48N 01°16' E 103°41'0 0.0
2017-May-24 22:30N 01°16' E 103°41'0 0.0
2017-May-24 21:51N 01°16' E 103°41'0 0.0
2017-May-24 21:18N 01°16' E 103°41'0 0.0
2017-May-24 20:51N 01°16' E 103°41'0 0.0
2017-May-24 20:24N 01°16' E 103°41'0 0.0
2017-May-24 19:51N 01°16' E 103°41'0 0.0
2017-May-24 19:24N 01°16' E 103°41'0 0.0
2017-May-24 18:51N 01°16' E 103°41'0 0.0
2017-May-24 18:30N 01°16' E 103°41'0 0.0
2017-May-24 17:51N 01°16' E 103°41'0 0.0
2017-May-24 17:30N 01°16' E 103°41'1 2.4
2017-May-24 17:00N 01°15' E 103°42'2 3.7
2017-May-24 16:30N 01°15' E 103°44'4 7.2
2017-May-24 16:00N 01°15' E 103°47'2 3.3
2017-May-24 15:30N 01°13' E 103°48'0 0.3
2017-May-24 14:56N 01°13' E 103°48'0 0.1
2017-May-24 14:20N 01°13' E 103°48'0 0.0
2017-May-24 13:26N 01°13' E 103°48'0 0.0
2017-May-24 12:50N 01°13' E 103°48'0 0.0
2017-May-24 12:26N 01°13' E 103°48'0 0.0
2017-May-24 11:56N 01°13' E 103°48'0 0.0
2017-May-24 11:29N 01°13' E 103°48'0 0.1
2017-May-24 10:47N 01°13' E 103°48'0 0.0
2017-May-24 10:14N 01°13' E 103°48'0 0.1
2017-May-24 09:50N 01°13' E 103°48'0 0.1
2017-May-24 09:29N 01°13' E 103°48'0 0.2
2017-May-24 08:50N 01°13' E 103°48'0 0.1
2017-May-24 07:35N 01°13' E 103°48'0 0.1
2017-May-24 07:29N 01°13' E 103°48'0 0.0
2017-May-24 06:59N 01°13' E 103°48'0 0.0
2017-May-24 06:26N 01°13' E 103°48'0 0.0
2017-May-24 05:56N 01°13' E 103°48'0 0.0
2017-May-24 05:29N 01°13' E 103°48'0 0.0
2017-May-24 04:59N 01°13' E 103°48'0 0.0
2017-May-24 04:23N 01°13' E 103°48'0 0.0
2017-May-24 02:56N 01°13' E 103°48'0 0.1
2017-May-24 01:47N 01°13' E 103°48'0 0.2
2017-May-24 00:41N 01°13' E 103°48'0 0.0
2017-May-24 00:17N 01°13' E 103°48'0 0.2
2017-May-23 23:56N 01°13' E 103°48'0 0.1
2017-May-23 22:38N 01°13' E 103°48'0 0.2
2017-May-23 21:47N 01°13' E 103°48'0 0.1
2017-May-23 20:26N 01°13' E 103°48'0 0.0
2017-May-23 19:17N 01°13' E 103°48'0 0.0
2017-May-23 18:59N 01°13' E 103°48'0 0.0
2017-May-23 18:26N 01°13' E 103°48'0 0.0
2017-May-23 17:53N 01°13' E 103°48'0 0.0
2017-May-23 17:29N 01°13' E 103°48'0 0.0
2017-May-23 16:56N 01°13' E 103°48'0 0.0
2017-May-23 16:23N 01°13' E 103°48'0 0.0
2017-May-23 15:53N 01°13' E 103°48'0 0.0
2017-May-23 15:26N 01°13' E 103°48'0 0.3
2017-May-23 14:56N 01°13' E 103°48'2 4.0
2017-May-23 14:30N 01°13' E 103°50'9 8.5
2017-May-23 13:29N 01°16' E 103°58'2 4.3
2017-May-23 12:58N 01°16' E 103°60'  
Track history (hours):
 
Tides and Currents Weather Stations Pressure Air Temp Water Temp Dewpoint Dewpoint Depression Visibility Wind Speed Wind Dir Waves Ship Positions

Ye Chi

Last reported at 2017-Jun-01 00:00 UTC. Time now 2017-Jun-24 20:52 UTC.
Position N 01°17' E 103°22'.
Warning: this ship's position is 23 days out of date.

Length 186 m; draft 7.5 m.

Type: Tanker. MMSI: 477621300.

Date/timePositionNaut miles runAvg speedWind from/ knotsBaromVisibWave heightAir tempDewpointWater temp
2017-Jun-01 00:00N 01°17' E 103°22'712.8
2017-May-31 23:26N 01°14' E 103°29'612.8
2017-May-31 23:00N 01°12' E 103°34'510.2
2017-May-31 22:30N 01°11' E 103°39'511.0
2017-May-31 22:00N 01°08' E 103°44'510.2
2017-May-31 21:30N 01°11' E 103°48'510.4
2017-May-31 21:00N 01°13' E 103°53'611.5
2017-May-31 20:30N 01°15' E 103°58'  
2017-May-26 13:28N 01°15' E 104°03'4 9.4
2017-May-26 13:00N 01°17' E 103°59'2 3.0
2017-May-26 12:29N 01°17' E 103°57'0 0.1
2017-May-26 11:59N 01°17' E 103°57'0 0.0
2017-May-26 11:29N 01°17' E 103°57'0 0.0
2017-May-26 10:59N 01°17' E 103°57'0 0.1
2017-May-26 10:26N 01°17' E 103°57'0 0.1
2017-May-26 09:59N 01°17' E 103°57'0 0.1
2017-May-26 09:29N 01°17' E 103°58'0 0.0
2017-May-26 08:56N 01°17' E 103°58'0 0.1
2017-May-26 08:29N 01°17' E 103°58'0 0.0
2017-May-26 07:59N 01°17' E 103°58'0 0.0
2017-May-26 07:26N 01°17' E 103°58'0 0.1
2017-May-26 06:59N 01°17' E 103°58'0 0.1
2017-May-26 06:29N 01°17' E 103°58'0 0.0
2017-May-26 05:56N 01°17' E 103°58'0 0.1
2017-May-26 05:29N 01°17' E 103°58'0 0.4
2017-May-26 04:56N 01°17' E 103°57'0 0.0
2017-May-26 04:29N 01°17' E 103°57'0 0.1
2017-May-26 03:47N 01°17' E 103°57'0 0.1
2017-May-26 03:23N 01°17' E 103°57'0 0.1
2017-May-26 02:53N 01°17' E 103°57'0 0.0
2017-May-26 02:17N 01°17' E 103°57'0 0.0
2017-May-26 01:59N 01°17' E 103°57'0 0.1
2017-May-26 01:20N 01°17' E 103°57'0 0.0
2017-May-26 00:59N 01°17' E 103°57'0 0.0
2017-May-26 00:26N 01°17' E 103°57'1 2.1
2017-May-26 00:00N 01°17' E 103°57'3 6.5
2017-May-25 23:30N 01°14' E 103°55'511.0
2017-May-25 23:00N 01°12' E 103°50'510.7
2017-May-25 22:30N 01°15' E 103°45'4 7.5
2017-May-25 22:01N 01°16' E 103°41'0 0.3
2017-May-25 21:30N 01°16' E 103°41'0 0.0
2017-May-25 20:57N 01°16' E 103°41'0 0.0
2017-May-25 20:30N 01°16' E 103°41'0 0.0
2017-May-25 19:54N 01°16' E 103°41'0 0.0
2017-May-25 19:24N 01°16' E 103°41'0 0.0
2017-May-25 18:54N 01°16' E 103°41'0 0.0
2017-May-25 18:24N 01°16' E 103°41'0 0.0
2017-May-25 17:48N 01°16' E 103°41'0 0.2
2017-May-25 17:24N 01°16' E 103°41'0 0.1
2017-May-25 16:54N 01°16' E 103°41'0 0.0
2017-May-25 16:30N 01°16' E 103°41'0 0.0
2017-May-25 15:54N 01°16' E 103°41'0 0.0
2017-May-25 15:30N 01°16' E 103°41'0 0.0
2017-May-25 14:57N 01°16' E 103°41'0 0.0
2017-May-25 14:27N 01°16' E 103°41'0 0.0
2017-May-25 13:30N 01°16' E 103°41'0 0.0
2017-May-25 12:57N 01°16' E 103°41'0 0.0
2017-May-25 12:24N 01°16' E 103°41'0 0.0
2017-May-25 11:54N 01°16' E 103°41'0 0.0
2017-May-25 11:30N 01°16' E 103°41'0 0.0
2017-May-25 10:57N 01°16' E 103°41'0 0.0
2017-May-25 10:24N 01°16' E 103°41'0 0.0
2017-May-25 09:45N 01°16' E 103°41'0 0.0
2017-May-25 09:30N 01°16' E 103°41'0 0.0
2017-May-25 08:51N 01°16' E 103°41'0 0.0
2017-May-25 08:18N 01°16' E 103°41'0 0.0
2017-May-25 07:48N 01°16' E 103°41'0 0.0
2017-May-25 07:30N 01°16' E 103°41'0 0.0
2017-May-25 06:54N 01°16' E 103°41'0 0.0
2017-May-25 06:18N 01°16' E 103°41'0 0.0
2017-May-25 05:36N 01°16' E 103°41'0 0.0
2017-May-25 05:30N 01°16' E 103°41'0 0.0
2017-May-25 04:54N 01°16' E 103°41'0 0.0
2017-May-25 03:54N 01°16' E 103°41'0 0.0
2017-May-25 03:30N 01°16' E 103°41'0 0.0
2017-May-25 02:54N 01°16' E 103°41'0 0.0
2017-May-25 02:15N 01°16' E 103°41'0 0.0
2017-May-25 01:48N 01°16' E 103°41'0 0.0
2017-May-25 01:27N 01°16' E 103°41'0 0.0
2017-May-25 00:51N 01°16' E 103°41'0 0.0
2017-May-25 00:18N 01°16' E 103°41'0 0.1
2017-May-24 23:51N 01°16' E 103°41'0 0.1
2017-May-24 23:18N 01°16' E 103°41'0 0.0
2017-May-24 22:48N 01°16' E 103°41'0 0.0
2017-May-24 22:30N 01°16' E 103°41'0 0.0
2017-May-24 21:51N 01°16' E 103°41'0 0.0
2017-May-24 21:18N 01°16' E 103°41'0 0.0
2017-May-24 20:51N 01°16' E 103°41'0 0.0
2017-May-24 20:24N 01°16' E 103°41'0 0.0
2017-May-24 19:51N 01°16' E 103°41'0 0.0
2017-May-24 19:24N 01°16' E 103°41'0 0.0
2017-May-24 18:51N 01°16' E 103°41'0 0.0
2017-May-24 18:30N 01°16' E 103°41'0 0.0
2017-May-24 17:51N 01°16' E 103°41'0 0.0
2017-May-24 17:30N 01°16' E 103°41'1 2.4
2017-May-24 17:00N 01°15' E 103°42'2 3.7
2017-May-24 16:30N 01°15' E 103°44'4 7.2
2017-May-24 16:00N 01°15' E 103°47'2 3.3
2017-May-24 15:30N 01°13' E 103°48'0 0.3
2017-May-24 14:56N 01°13' E 103°48'0 0.1
2017-May-24 14:20N 01°13' E 103°48'0 0.0
2017-May-24 13:26N 01°13' E 103°48'0 0.0
2017-May-24 12:50N 01°13' E 103°48'0 0.0
2017-May-24 12:26N 01°13' E 103°48'0 0.0
2017-May-24 11:56N 01°13' E 103°48'0 0.0
2017-May-24 11:29N 01°13' E 103°48'0 0.1
2017-May-24 10:47N 01°13' E 103°48'0 0.0
2017-May-24 10:14N 01°13' E 103°48'0 0.1
2017-May-24 09:50N 01°13' E 103°48'0 0.1
2017-May-24 09:29N 01°13' E 103°48'0 0.2
2017-May-24 08:50N 01°13' E 103°48'0 0.1
2017-May-24 07:35N 01°13' E 103°48'0 0.1
2017-May-24 07:29N 01°13' E 103°48'0 0.0
2017-May-24 06:59N 01°13' E 103°48'0 0.0
2017-May-24 06:26N 01°13' E 103°48'0 0.0
2017-May-24 05:56N 01°13' E 103°48'0 0.0
2017-May-24 05:29N 01°13' E 103°48'0 0.0
2017-May-24 04:59N 01°13' E 103°48'0 0.0
2017-May-24 04:23N 01°13' E 103°48'0 0.0
2017-May-24 02:56N 01°13' E 103°48'0 0.1
2017-May-24 01:47N 01°13' E 103°48'0 0.2
2017-May-24 00:41N 01°13' E 103°48'0 0.0
2017-May-24 00:17N 01°13' E 103°48'0 0.2
2017-May-23 23:56N 01°13' E 103°48'0 0.1
2017-May-23 22:38N 01°13' E 103°48'0 0.2
2017-May-23 21:47N 01°13' E 103°48'0 0.1
2017-May-23 20:26N 01°13' E 103°48'0 0.0
2017-May-23 19:17N 01°13' E 103°48'0 0.0
2017-May-23 18:59N 01°13' E 103°48'0 0.0
2017-May-23 18:26N 01°13' E 103°48'0 0.0
2017-May-23 17:53N 01°13' E 103°48'0 0.0
2017-May-23 17:29N 01°13' E 103°48'0 0.0
2017-May-23 16:56N 01°13' E 103°48'0 0.0
2017-May-23 16:23N 01°13' E 103°48'0 0.0
2017-May-23 15:53N 01°13' E 103°48'0 0.0
2017-May-23 15:26N 01°13' E 103°48'0 0.3
2017-May-23 14:56N 01°13' E 103°48'2 4.0
2017-May-23 14:30N 01°13' E 103°50'9 8.5
2017-May-23 13:29N 01°16' E 103°58'2 4.3
2017-May-23 12:58N 01°16' E 103°60'  

Dump ship's entire track history